Time;durP1;ratioP1;P1;durP2;ratioP2;P2;SDS_P1;SDS_P2;PMS_P1;PMS_P2;Temp;Humidity;BMP_temperature;BMP_pressure;BME280_temperature;BME280_humidity;BME280_pressure;Samples;Min_cycle;Max_cycle;Signal;HPM_P1;HPM_P2
2023/11/22 00:01:51;;;;;;;0.30;0.20;;;;;;;7.26;98.07;100972.56;5004799;28;20492;-46
2023/11/22 00:04:18;;;;;;;0.30;0.20;;;;;;;7.30;95.40;100979.63;5001372;28;20475;-45
2023/11/22 00:06:44;;;;;;;0.30;0.20;;;;;;;7.24;95.60;100979.63;4998140;28;20997;-45
2023/11/22 00:09:10;;;;;;;0.30;0.20;;;;;;;7.25;97.19;100976.97;5005030;28;20487;-46
2023/11/22 00:11:37;;;;;;;0.30;0.20;;;;;;;7.50;96.46;100969.81;4998351;28;20950;-45
2023/11/22 00:14:03;;;;;;;0.30;0.20;;;;;;;7.63;96.57;100974.16;5002049;28;20453;-46
2023/11/22 00:16:30;;;;;;;0.30;0.20;;;;;;;7.79;96.51;100967.00;5005432;28;20512;-46
2023/11/22 00:18:57;;;;;;;0.30;0.20;;;;;;;7.85;97.21;100974.03;4998718;28;20952;-46
2023/11/22 00:21:24;;;;;;;0.30;0.20;;;;;;;7.89;98.15;100984.59;5004802;28;20540;-46
2023/11/22 00:23:51;;;;;;;0.30;0.20;;;;;;;7.86;95.85;100984.63;5002580;28;20476;-46
2023/11/22 00:26:17;;;;;;;0.30;0.20;;;;;;;7.74;94.47;100987.31;5001854;28;20453;-46
2023/11/22 00:28:44;;;;;;;0.30;0.20;;;;;;;7.70;94.46;100983.84;5005431;28;20489;-46
2023/11/22 00:31:11;;;;;;;0.30;0.20;;;;;;;7.33;95.48;100991.06;5011465;28;20989;-46
2023/11/22 00:33:37;;;;;;;0.30;0.20;;;;;;;7.12;95.98;100999.06;5008993;28;20452;-50
2023/11/22 00:36:04;;;;;;;0.30;0.20;;;;;;;6.92;96.98;100995.59;5008324;28;20497;-45
2023/11/22 00:38:31;;;;;;;0.30;0.20;;;;;;;6.92;97.51;100993.84;5005556;28;20444;-46
2023/11/22 00:40:59;;;;;;;0.30;0.20;;;;;;;6.86;97.63;101012.34;5001954;28;20476;-45
2023/11/22 00:43:26;;;;;;;0.30;0.20;;;;;;;6.75;97.53;101001.81;5004573;28;20453;-45
2023/11/22 00:45:53;;;;;;;0.30;0.20;;;;;;;6.90;97.76;100997.38;5016795;28;20943;-46
2023/11/22 00:48:19;;;;;;;0.30;0.20;;;;;;;6.83;97.30;100997.38;5023055;28;20452;-48
2023/11/22 00:50:46;;;;;;;0.30;0.20;;;;;;;6.74;97.57;101000.03;5001138;28;20467;-45
2023/11/22 00:53:14;;;;;;;0.30;0.20;;;;;;;6.66;98.30;101004.44;5014468;28;20503;-46
2023/11/22 00:55:42;;;;;;;0.30;0.20;;;;;;;6.76;98.22;101005.31;5001422;28;20452;-46
2023/11/22 00:58:08;;;;;;;0.30;0.20;;;;;;;6.72;97.25;100996.53;5003306;28;20477;-46
2023/11/22 01:00:35;;;;;;;0.30;0.20;;;;;;;6.48;98.62;101000.06;5011200;28;20920;-46
2023/11/22 01:03:01;;;;;;;0.30;0.20;;;;;;;6.68;99.52;101002.69;5014063;28;20544;-46
2023/11/22 01:05:29;;;;;;;0.30;0.20;;;;;;;6.58;98.16;101005.31;5001212;28;20819;-46
2023/11/22 01:07:55;;;;;;;0.30;0.20;;;;;;;6.29;98.96;101002.69;5002608;28;20504;-45
2023/11/22 01:10:22;;;;;;;0.30;0.20;;;;;;;6.49;98.24;101008.88;5007370;28;20493;-45
2023/11/22 01:12:49;;;;;;;0.30;0.20;;;;;;;5.99;99.14;101011.47;5006658;28;20453;-45
2023/11/22 01:15:16;;;;;;;0.30;0.20;;;;;;;5.78;98.70;101017.56;5003328;28;20453;-47
2023/11/22 01:17:42;;;;;;;0.30;0.20;;;;;;;5.94;99.69;101022.03;5007091;28;20536;-49
2023/11/22 01:20:11;;;;;;;0.30;0.20;;;;;;;6.04;98.59;101025.56;4997299;28;20505;-50
2023/11/22 01:22:38;;;;;;;0.30;0.20;;;;;;;6.22;97.38;101030.84;5007193;28;20472;-49
2023/11/22 01:25:05;;;;;;;0.30;0.20;;;;;;;6.10;97.92;101033.47;5000697;28;20591;-50
2023/11/22 01:27:31;;;;;;;0.30;0.20;;;;;;;5.86;97.21;101040.41;5001436;28;20459;-48
2023/11/22 01:29:58;;;;;;;0.30;0.20;;;;;;;5.81;96.99;101036.03;5007130;28;20503;-49
2023/11/22 01:32:24;;;;;;;0.30;0.20;;;;;;;5.77;97.50;101039.53;5012355;28;20461;-50
2023/11/22 01:34:51;;;;;;;0.30;0.20;;;;;;;5.78;96.37;101051.84;5000176;28;20527;-50
2023/11/22 01:37:17;;;;;;;0.30;0.20;;;;;;;5.73;96.84;101054.44;5000582;28;20976;-50
2023/11/22 01:39:43;;;;;;;0.30;0.20;;;;;;;5.60;97.14;101050.88;5000546;28;20563;-50
2023/11/22 01:42:10;;;;;;;0.50;0.30;;;;;;;5.63;96.68;101052.69;5000918;28;20492;-50
2023/11/22 01:44:36;;;;;;;0.30;0.20;;;;;;;5.64;96.24;101062.34;5008975;28;20975;-50
2023/11/22 01:47:04;;;;;;;0.30;0.20;;;;;;;5.55;97.41;101070.22;5026887;28;20475;-49
2023/11/22 01:49:31;;;;;;;0.30;0.20;;;;;;;5.48;96.13;101066.69;5006073;28;20636;-50
2023/11/22 01:51:58;;;;;;;0.30;0.20;;;;;;;5.55;96.86;101065.81;5006812;28;20811;-49
2023/11/22 01:54:25;;;;;;;0.30;0.20;;;;;;;5.45;96.48;101069.28;5010187;28;20452;-50
2023/11/22 01:56:51;;;;;;;0.30;0.20;;;;;;;5.51;96.68;101068.44;5000057;28;20454;-50
2023/11/22 01:59:18;;;;;;;0.30;0.20;;;;;;;5.72;96.30;101073.78;5005466;28;20476;-49
2023/11/22 02:01:44;;;;;;;0.30;0.20;;;;;;;5.56;95.05;101064.06;5008042;28;20456;-50
2023/11/22 02:04:12;;;;;;;0.30;0.20;;;;;;;5.62;95.64;101067.63;5005357;28;20453;-49
2023/11/22 02:06:39;;;;;;;0.30;0.20;;;;;;;5.41;95.67;101072.78;5006592;28;20448;-50
2023/11/22 02:09:06;;;;;;;0.30;0.20;;;;;;;5.48;95.94;101071.94;5001210;28;20490;-49
2023/11/22 02:11:33;;;;;;;0.30;0.20;;;;;;;5.35;96.39;101067.50;4999601;28;20449;-50
2023/11/22 02:13:59;;;;;;;0.30;0.20;;;;;;;5.39;96.17;101078.91;5005293;28;20464;-49
2023/11/22 02:16:27;;;;;;;0.30;0.20;;;;;;;5.34;95.94;101081.50;4998909;28;20457;-50
2023/11/22 02:18:54;;;;;;;0.30;0.20;;;;;;;5.32;95.76;101093.81;5004169;28;20449;-50
2023/11/22 02:21:21;;;;;;;0.30;0.20;;;;;;;5.29;96.56;101094.69;5001652;28;20485;-49
2023/11/22 02:23:48;;;;;;;0.30;0.20;;;;;;;5.53;96.04;101091.31;5004034;28;20545;-49
2023/11/22 02:26:17;;;;;;;0.30;0.20;;;;;;;5.36;96.51;101095.63;5006314;28;20510;-49
2023/11/22 02:28:44;;;;;;;0.30;0.20;;;;;;;5.38;96.78;101104.41;5002189;28;20480;-50
2023/11/22 02:31:10;;;;;;;0.30;0.20;;;;;;;5.47;96.38;101114.97;5009056;28;20551;-50
2023/11/22 02:33:37;;;;;;;0.30;0.20;;;;;;;5.45;96.55;101110.56;5003158;28;20485;-50
2023/11/22 02:36:04;;;;;;;0.30;0.20;;;;;;;5.55;96.81;101115.91;5005780;28;20461;-49
2023/11/22 02:38:30;;;;;;;0.30;0.20;;;;;;;5.59;96.65;101116.81;5003392;28;20543;-49
2023/11/22 02:40:58;;;;;;;0.30;0.20;;;;;;;5.58;95.32;101108.00;4999297;28;20551;-50
2023/11/22 02:43:24;;;;;;;0.30;0.20;;;;;;;5.65;94.89;101104.53;5002147;28;20457;-49
2023/11/22 02:45:51;;;;;;;0.30;0.20;;;;;;;5.81;95.70;101102.84;5014057;28;20881;-49
2023/11/22 02:48:19;;;;;;;0.30;0.20;;;;;;;5.87;94.18;101094.94;5021200;28;20519;-50
2023/11/22 02:50:45;;;;;;;0.30;0.20;;;;;;;5.59;94.64;101099.22;5001592;28;20489;-49
2023/11/22 02:53:12;;;;;;;0.30;0.20;;;;;;;5.53;94.65;101093.94;5003666;28;20934;-49
2023/11/22 02:55:39;;;;;;;0.30;0.20;;;;;;;5.67;95.31;101096.63;5007943;28;20934;-50
2023/11/22 02:58:06;;;;;;;0.30;0.20;;;;;;;5.62;94.05;101093.09;5004206;28;20547;-49
2023/11/22 03:00:34;;;;;;;0.30;0.20;;;;;;;5.68;93.49;101092.25;4999038;28;20469;-49
2023/11/22 03:03:03;;;;;;;0.30;0.20;;;;;;;5.85;94.23;101101.09;5011988;28;21041;-50
2023/11/22 03:05:29;;;;;;;0.30;0.20;;;;;;;5.72;94.39;101110.72;4999633;28;20870;-49
2023/11/22 03:07:56;;;;;;;0.30;0.20;;;;;;;5.69;94.49;101109.81;5000105;28;20454;-49
2023/11/22 03:10:23;;;;;;;0.30;0.20;;;;;;;5.61;93.87;101115.94;5005528;28;20551;-49
2023/11/22 03:12:49;;;;;;;0.30;0.20;;;;;;;5.77;94.93;101123.94;5004685;28;20900;-49
2023/11/22 03:15:16;;;;;;;0.30;0.20;;;;;;;5.68;95.04;101126.53;4998852;28;20988;-49
2023/11/22 03:17:44;;;;;;;0.30;0.20;;;;;;;5.81;95.17;101131.88;5002417;28;20461;-49
2023/11/22 03:20:10;;;;;;;0.30;0.20;;;;;;;5.85;95.19;101136.28;4998656;28;20469;-48
2023/11/22 03:22:38;;;;;;;0.30;0.20;;;;;;;6.03;94.23;101139.88;5008927;28;20967;-50
2023/11/22 03:25:05;;;;;;;0.30;0.20;;;;;;;5.94;93.31;101143.38;4998663;28;20965;-50
2023/11/22 03:27:31;;;;;;;0.30;0.20;;;;;;;5.70;94.93;101146.75;4999302;28;20477;-49
2023/11/22 03:29:59;;;;;;;0.30;0.20;;;;;;;5.75;93.85;101149.41;5005348;28;20583;-50
2023/11/22 03:32:26;;;;;;;0.30;0.20;;;;;;;5.91;93.31;101149.53;5010383;28;20455;-49
2023/11/22 03:34:53;;;;;;;0.30;0.20;;;;;;;5.55;94.45;101147.56;5000861;28;20445;-48
2023/11/22 03:37:19;;;;;;;0.30;0.20;;;;;;;5.58;93.96;101146.69;5011854;28;20448;-48
2023/11/22 03:39:48;;;;;;;0.30;0.20;;;;;;;5.52;95.05;101158.09;4999112;28;20552;-49
2023/11/22 03:42:16;;;;;;;0.30;0.20;;;;;;;5.34;94.67;101166.78;4998868;28;20480;-50
2023/11/22 03:44:42;;;;;;;0.30;0.20;;;;;;;5.14;95.20;101164.84;5007141;28;20502;-50
2023/11/22 03:47:17;;;;;;;0.30;0.20;;;;;;;5.10;95.45;101163.97;5024828;28;20457;-49
2023/11/22 03:49:44;;;;;;;0.30;0.20;;;;;;;4.95;96.10;101177.88;5002385;28;20876;-49
2023/11/22 03:52:11;;;;;;;0.30;0.20;;;;;;;4.92;95.84;101185.75;5005260;28;20732;-50
2023/11/22 03:54:39;;;;;;;0.30;0.20;;;;;;;4.82;96.53;101191.81;5002792;28;20444;-50
2023/11/22 03:57:05;;;;;;;0.30;0.20;;;;;;;4.76;96.13;101194.38;4998552;28;20461;-49
2023/11/22 03:59:34;;;;;;;0.30;0.20;;;;;;;4.69;96.15;101185.53;5004002;28;20501;-49
2023/11/22 04:02:01;;;;;;;0.30;0.20;;;;;;;4.57;96.33;101187.16;5008570;28;20457;-50
2023/11/22 04:04:27;;;;;;;0.30;0.20;;;;;;;4.49;96.74;101191.47;5006631;28;20510;-50
2023/11/22 04:06:54;;;;;;;0.30;0.20;;;;;;;4.54;96.92;101195.03;5002256;28;21036;-49
2023/11/22 04:09:20;;;;;;;0.30;0.20;;;;;;;4.37;97.36;101203.63;5004585;28;21354;-50
2023/11/22 04:11:47;;;;;;;0.30;0.20;;;;;;;4.19;97.64;101206.03;5009038;28;20449;-48
2023/11/22 04:14:14;;;;;;;0.30;0.20;;;;;;;4.28;98.04;101216.69;5005990;28;20539;-49
2023/11/22 04:16:40;;;;;;;0.30;0.20;;;;;;;4.33;97.27;101219.38;5007542;28;20553;-50
2023/11/22 04:19:07;;;;;;;0.30;0.17;;;;;;;4.55;97.18;101223.13;5006344;28;20472;-50
2023/11/22 04:21:34;;;;;;;0.30;0.20;;;;;;;4.70;96.16;101218.03;4998674;28;20523;-50
2023/11/22 04:24:00;;;;;;;0.30;0.20;;;;;;;4.93;94.10;101208.56;5011418;28;20867;-48
2023/11/22 04:26:27;;;;;;;0.30;0.20;;;;;;;4.82;94.30;101207.63;5005468;28;20547;-50
2023/11/22 04:28:53;;;;;;;0.30;0.20;;;;;;;5.04;93.68;101213.94;5003425;28;20449;-50
2023/11/22 04:31:20;;;;;;;0.30;0.20;;;;;;;4.80;93.82;101213.72;5012960;28;20502;-50
2023/11/22 04:33:46;;;;;;;0.30;0.20;;;;;;;5.04;93.40;101217.47;5003112;28;20894;-50
2023/11/22 04:36:13;;;;;;;0.30;0.20;;;;;;;5.07;92.86;101229.78;5008084;28;20445;-49
2023/11/22 04:38:39;;;;;;;0.30;0.20;;;;;;;5.35;92.56;101223.00;5007101;28;20458;-49
2023/11/22 04:41:06;;;;;;;0.30;0.20;;;;;;;5.25;92.08;101224.69;5001950;28;20468;-49
2023/11/22 04:43:32;;;;;;;0.30;0.20;;;;;;;5.07;91.44;101237.69;5002727;28;20481;-49
2023/11/22 04:45:59;;;;;;;0.30;0.20;;;;;;;4.99;92.04;101234.13;5018286;28;20450;-49
2023/11/22 04:48:25;;;;;;;0.30;0.20;;;;;;;4.95;92.17;101242.88;5022622;28;20458;-49
2023/11/22 04:50:52;;;;;;;0.30;0.20;;;;;;;5.15;91.77;101243.03;5001373;28;20499;-49
2023/11/22 04:53:19;;;;;;;0.30;0.10;;;;;;;5.06;91.44;101255.25;5003307;28;20477;-49
2023/11/22 04:55:45;;;;;;;0.30;0.20;;;;;;;5.01;91.16;101259.59;5013272;28;20449;-49
2023/11/22 04:58:12;;;;;;;0.30;0.17;;;;;;;4.85;91.91;101259.44;5002431;28;20829;-49
2023/11/22 05:00:38;;;;;;;0.30;0.20;;;;;;;4.89;91.42;101264.75;5011441;28;20464;-50
2023/11/22 05:03:06;;;;;;;0.30;0.20;;;;;;;4.79;91.98;101259.34;5014396;28;20486;-49
2023/11/22 05:05:32;;;;;;;0.30;0.20;;;;;;;4.92;91.57;101267.41;5001102;28;20535;-49
2023/11/22 05:07:59;;;;;;;0.30;0.20;;;;;;;4.93;91.80;101273.56;5001456;28;20488;-50
2023/11/22 05:10:25;;;;;;;0.30;0.20;;;;;;;4.83;92.23;101271.72;4999533;28;20531;-50
2023/11/22 05:12:52;;;;;;;0.30;0.10;;;;;;;4.83;91.59;101271.72;5000876;28;20924;-50
2023/11/22 05:15:18;;;;;;;0.30;0.20;;;;;;;4.81;91.04;101271.69;5001291;28;20480;-50
2023/11/22 05:17:45;;;;;;;0.30;0.20;;;;;;;4.81;91.59;101271.69;5000940;28;20551;-49
2023/11/22 05:20:12;;;;;;;0.30;0.20;;;;;;;4.61;91.82;101268.84;5007370;28;20902;-49
2023/11/22 05:22:38;;;;;;;0.30;0.20;;;;;;;4.65;91.35;101278.53;5004646;28;20472;-49
2023/11/22 05:25:07;;;;;;;0.30;0.20;;;;;;;4.51;92.28;101285.38;5007533;28;20454;-49
2023/11/22 05:27:33;;;;;;;0.30;0.20;;;;;;;4.43;92.53;101287.94;5007305;28;20822;-49
2023/11/22 05:30:00;;;;;;;0.30;0.20;;;;;;;4.64;92.01;101287.28;5000867;28;20875;-50
2023/11/22 05:32:29;;;;;;;0.30;0.20;;;;;;;4.83;91.84;101293.66;5013347;28;20540;-50
2023/11/22 05:34:55;;;;;;;0.30;0.20;;;;;;;4.93;91.21;101292.00;5001444;28;20511;-50
2023/11/22 05:37:22;;;;;;;0.30;0.20;;;;;;;4.57;91.42;101289.84;5000496;28;20453;-50
2023/11/22 05:39:51;;;;;;;0.30;0.20;;;;;;;4.82;90.99;101281.38;5005743;28;20469;-50
2023/11/22 05:42:17;;;;;;;0.30;0.20;;;;;;;4.94;91.23;101283.25;5007025;28;20536;-49
2023/11/22 05:44:44;;;;;;;0.30;0.17;;;;;;;4.88;91.18;101288.44;5002086;28;20484;-48
2023/11/22 05:47:12;;;;;;;0.30;0.20;;;;;;;4.85;90.88;101286.66;5025581;28;20443;-50
2023/11/22 05:49:39;;;;;;;0.30;0.20;;;;;;;4.88;90.85;101293.72;5005207;28;20473;-50
2023/11/22 05:52:06;;;;;;;0.30;0.20;;;;;;;5.01;90.75;101293.84;5006906;28;20459;-50
2023/11/22 05:54:32;;;;;;;0.30;0.20;;;;;;;5.15;90.77;101304.53;5002129;28;20449;-49
2023/11/22 05:56:58;;;;;;;0.30;0.20;;;;;;;4.79;90.82;101309.41;5011414;28;20829;-50
2023/11/22 05:59:25;;;;;;;0.30;0.20;;;;;;;4.67;90.75;101305.78;5002377;28;20560;-50
2023/11/22 06:01:51;;;;;;;0.30;0.17;;;;;;;4.69;90.90;101305.78;5011829;28;20464;-50
2023/11/22 06:04:18;;;;;;;0.30;0.20;;;;;;;4.72;90.65;101319.00;5005141;28;20524;-49
2023/11/22 06:06:44;;;;;;;0.30;0.20;;;;;;;4.67;90.38;101323.34;5006711;28;20556;-50
2023/11/22 06:09:14;;;;;;;0.30;0.10;;;;;;;4.53;90.90;101330.19;5001685;28;20997;-49
2023/11/22 06:11:40;;;;;;;0.30;0.10;;;;;;;4.74;90.87;101333.06;5000234;28;20927;-50
2023/11/22 06:14:07;;;;;;;0.30;0.20;;;;;;;4.60;90.87;101340.78;5003673;28;20453;-49
2023/11/22 06:16:34;;;;;;;0.30;0.20;;;;;;;4.61;90.43;101337.28;5006406;28;20461;-50
2023/11/22 06:19:00;;;;;;;0.30;0.20;;;;;;;4.53;90.90;101352.13;5002965;28;20453;-50
2023/11/22 06:21:27;;;;;;;0.30;0.20;;;;;;;4.56;90.44;101352.16;4999371;28;20479;-48
2023/11/22 06:23:58;;;;;;;0.30;0.20;;;;;;;4.66;89.83;101356.69;5011739;28;20449;-50
2023/11/22 06:26:25;;;;;;;0.30;0.20;;;;;;;4.56;90.82;101362.69;4999483;28;20873;-50
2023/11/22 06:28:52;;;;;;;0.30;0.10;;;;;;;4.72;90.59;101363.75;5002444;28;20459;-49
2023/11/22 06:31:18;;;;;;;0.30;0.10;;;;;;;4.61;89.98;101365.38;5010458;28;20489;-49
2023/11/22 06:33:45;;;;;;;0.30;0.20;;;;;;;4.62;90.63;101359.22;5002108;28;20468;-49
2023/11/22 06:36:14;;;;;;;0.30;0.20;;;;;;;4.53;90.50;101365.28;5006183;28;20453;-50
2023/11/22 06:38:41;;;;;;;0.30;0.20;;;;;;;4.54;90.64;101374.06;5004140;28;20456;-49
2023/11/22 06:41:07;;;;;;;0.30;0.10;;;;;;;4.37;90.73;101390.47;4999445;28;20559;-50
2023/11/22 06:43:34;;;;;;;0.30;0.10;;;;;;;4.31;91.34;101395.69;5001764;28;20454;-50
2023/11/22 06:46:01;;;;;;;0.30;0.10;;;;;;;4.32;90.98;101397.44;5015823;28;20440;-49
2023/11/22 06:48:28;;;;;;;0.30;0.20;;;;;;;4.33;90.54;101388.69;5020086;28;20524;-50
2023/11/22 06:50:54;;;;;;;0.30;0.20;;;;;;;4.41;90.14;101392.31;4998751;28;20500;-49
2023/11/22 06:53:21;;;;;;;0.30;0.20;;;;;;;4.32;90.46;101405.34;5000329;28;20950;-50
2023/11/22 06:55:47;;;;;;;0.30;0.20;;;;;;;4.23;90.44;101396.41;5011494;28;20472;-49
2023/11/22 06:58:14;;;;;;;0.30;0.20;;;;;;;4.36;90.59;101396.63;5000290;28;20456;-50
2023/11/22 07:00:40;;;;;;;0.37;0.37;;;;;;;4.31;89.85;101400.94;5010013;28;20563;-50
2023/11/22 07:03:08;;;;;;;0.30;0.20;;;;;;;4.30;89.44;101396.53;5012163;28;20536;-49
2023/11/22 07:05:35;;;;;;;0.30;0.20;;;;;;;4.40;89.21;101403.72;4998979;28;20547;-50
2023/11/22 07:08:03;;;;;;;0.30;0.20;;;;;;;4.14;89.84;101402.44;4999518;28;20534;-51
2023/11/22 07:10:33;;;;;;;0.30;0.20;;;;;;;4.15;89.70;101414.72;5005309;28;20497;-49
2023/11/22 07:13:03;;;;;;;0.30;0.20;;;;;;;3.94;90.30;101404.72;5005818;28;20452;-49
2023/11/22 07:15:32;;;;;;;0.30;0.17;;;;;;;3.96;89.83;101418.78;5000622;28;20451;-50
2023/11/22 07:17:59;;;;;;;0.30;0.20;;;;;;;4.06;89.42;101409.31;4999498;28;20862;-46
2023/11/22 07:20:27;;;;;;;0.30;0.20;;;;;;;4.26;89.59;101420.16;5004565;28;20473;-46
2023/11/22 07:22:57;;;;;;;0.30;0.20;;;;;;;3.97;89.97;101420.56;5006058;28;20969;-46
2023/11/22 07:25:27;;;;;;;0.30;0.10;;;;;;;4.01;89.74;101413.63;5003925;28;20777;-46
2023/11/22 07:27:53;;;;;;;0.30;0.20;;;;;;;4.14;89.64;101423.47;5005754;28;20464;-46
2023/11/22 07:30:22;;;;;;;0.30;0.20;;;;;;;4.24;89.40;101421.84;5001685;28;20503;-46
2023/11/22 07:32:51;;;;;;;0.30;0.17;;;;;;;4.21;89.86;101420.06;5008393;28;20494;-46
2023/11/22 07:35:19;;;;;;;0.30;0.20;;;;;;;4.20;89.72;101418.31;5002945;28;20507;-46
2023/11/22 07:37:47;;;;;;;0.30;0.13;;;;;;;4.15;89.70;101420.88;4998558;28;20448;-46
2023/11/22 07:40:14;;;;;;;0.30;0.20;;;;;;;4.44;89.01;101423.06;5001087;28;21052;-46
2023/11/22 07:42:43;;;;;;;0.30;0.10;;;;;;;4.45;88.33;101427.47;5005606;28;20455;-46
2023/11/22 07:45:11;;;;;;;0.30;0.20;;;;;;;4.43;88.25;101429.19;5003534;28;20510;-46
2023/11/22 07:47:41;;;;;;;0.30;0.20;;;;;;;4.17;88.49;101415.63;5025346;28;20456;-46
2023/11/22 07:50:10;;;;;;;0.30;0.10;;;;;;;4.13;88.09;101409.44;4999094;28;20936;-46
2023/11/22 07:52:38;;;;;;;0.30;0.20;;;;;;;3.96;88.30;101402.13;5005386;28;20489;-46
2023/11/22 07:55:07;;;;;;;0.30;0.20;;;;;;;3.99;88.00;101407.47;5005318;28;20456;-48
2023/11/22 07:57:34;;;;;;;0.30;0.20;;;;;;;4.10;87.51;101411.13;5011885;28;20448;-46
2023/11/22 08:00:04;;;;;;;0.30;0.20;;;;;;;4.24;86.84;101403.44;4998529;28;20828;-47
2023/11/22 08:02:31;;;;;;;0.30;0.20;;;;;;;4.15;87.26;101409.47;5011904;28;20450;-46
2023/11/22 08:05:01;;;;;;;0.30;0.20;;;;;;;4.22;86.18;101415.69;4998573;28;20453;-46
2023/11/22 08:07:28;;;;;;;0.30;0.20;;;;;;;4.34;85.97;101414.13;5003172;28;20485;-46
2023/11/22 08:09:54;;;;;;;0.30;0.20;;;;;;;4.32;85.78;101415.88;5004602;28;20484;-47
2023/11/22 08:12:23;;;;;;;0.30;0.20;;;;;;;4.42;86.40;101414.25;5000912;28;20494;-46
2023/11/22 08:14:49;;;;;;;0.30;0.20;;;;;;;4.38;86.05;101415.94;4997178;28;20457;-48
2023/11/22 08:17:16;;;;;;;0.30;0.10;;;;;;;4.43;86.29;101430.06;5002319;28;20457;-46
2023/11/22 08:19:42;;;;;;;0.30;0.10;;;;;;;4.20;88.30;101431.47;5005205;28;20476;-46
2023/11/22 08:22:09;;;;;;;0.30;0.20;;;;;;;4.02;90.13;101431.19;5001335;28;20879;-46
2023/11/22 08:24:35;;;;;;;0.30;0.20;;;;;;;3.99;91.43;101444.28;5000374;28;20480;-46
2023/11/22 08:27:03;;;;;;;0.30;0.20;;;;;;;4.10;90.72;101454.09;5002153;28;20457;-45
2023/11/22 08:29:29;;;;;;;0.30;0.20;;;;;;;4.40;90.52;101452.84;5004856;28;20888;-46
2023/11/22 08:31:57;;;;;;;0.30;0.20;;;;;;;4.21;89.39;101451.66;5006063;28;20488;-46
2023/11/22 08:34:24;;;;;;;0.30;0.17;;;;;;;4.18;88.29;101459.50;4998112;28;20484;-45
2023/11/22 08:36:51;;;;;;;0.30;0.20;;;;;;;4.55;87.84;101460.09;5001394;28;20457;-46
2023/11/22 08:39:17;;;;;;;0.30;0.20;;;;;;;4.43;87.75;101461.66;5004774;28;20477;-46
2023/11/22 08:41:44;;;;;;;0.30;0.20;;;;;;;4.30;87.17;101470.22;5002203;28;20441;-46
2023/11/22 08:44:10;;;;;;;0.30;0.20;;;;;;;4.47;86.37;101475.75;4994875;28;20457;-46
2023/11/22 08:46:37;;;;;;;0.30;0.10;;;;;;;4.79;86.04;101491.13;5013665;28;20816;-46
2023/11/22 08:49:03;;;;;;;0.30;0.10;;;;;;;4.67;85.24;101491.88;5011284;28;20454;-47
2023/11/22 08:51:30;;;;;;;0.30;0.20;;;;;;;4.70;85.37;101481.38;5005253;28;21009;-47
2023/11/22 08:53:56;;;;;;;0.30;0.20;;;;;;;4.68;85.42;101494.50;5001528;28;20531;-47
2023/11/22 08:56:23;;;;;;;0.30;0.20;;;;;;;4.68;84.44;101491.88;5003930;28;20497;-44
2023/11/22 08:58:50;;;;;;;0.30;0.20;;;;;;;4.89;83.81;101499.19;5011876;28;20479;-45
2023/11/22 09:01:16;;;;;;;0.30;0.20;;;;;;;4.59;83.08;101504.00;5012832;28;20446;-45
2023/11/22 09:03:43;;;;;;;0.30;0.17;;;;;;;4.62;83.04;101496.16;5010203;28;20453;-45
2023/11/22 09:06:10;;;;;;;0.30;0.20;;;;;;;4.45;83.81;101491.53;5005945;28;20479;-46
2023/11/22 09:08:36;;;;;;;0.30;0.10;;;;;;;4.51;83.72;101484.56;5000883;28;20459;-45
2023/11/22 09:11:06;;;;;;;0.30;0.10;;;;;;;4.49;83.37;101478.41;5003037;28;20493;-46
2023/11/22 09:13:32;;;;;;;0.30;0.20;;;;;;;4.62;82.41;101464.56;5007939;28;20449;-46
2023/11/22 09:15:59;;;;;;;0.30;0.10;;;;;;;4.40;83.70;101466.88;5005938;28;20536;-45
2023/11/22 09:18:26;;;;;;;0.30;0.20;;;;;;;4.33;83.10;101470.25;5000996;28;20456;-46
2023/11/22 09:20:53;;;;;;;0.30;0.17;;;;;;;4.41;82.37;101462.50;5002937;28;20461;-45
2023/11/22 09:23:20;;;;;;;0.30;0.17;;;;;;;4.54;82.33;101471.47;5007626;28;20773;-45
2023/11/22 09:25:47;;;;;;;0.30;0.20;;;;;;;4.51;81.36;101477.56;5000653;28;20822;-46
2023/11/22 09:28:15;;;;;;;0.30;0.20;;;;;;;4.51;81.36;101474.03;5007795;28;20457;-45
2023/11/22 09:30:43;;;;;;;0.30;0.17;;;;;;;4.47;80.10;101476.63;5005764;28;20496;-46
2023/11/22 09:33:16;;;;;;;0.30;0.20;;;;;;;4.28;79.27;101481.59;5008461;28;20460;-47
2023/11/22 09:35:45;;;;;;;0.30;0.20;;;;;;;4.30;80.19;101480.75;5007380;28;20501;-45
2023/11/22 09:38:13;;;;;;;0.30;0.17;;;;;;;4.44;79.72;101488.88;5001216;28;20456;-45
2023/11/22 09:40:47;;;;;;;0.30;0.20;;;;;;;4.46;78.94;101484.50;5000361;28;20480;-47
2023/11/22 09:43:17;;;;;;;0.30;0.20;;;;;;;4.68;78.96;101480.47;5005896;28;20492;-45
2023/11/22 09:45:44;;;;;;;0.30;0.20;;;;;;;4.46;78.52;101490.66;5011768;28;20526;-46
2023/11/22 09:48:12;;;;;;;0.30;0.20;;;;;;;4.56;78.53;101488.19;5023861;28;20491;-45
2023/11/22 09:50:48;;;;;;;0.30;0.20;;;;;;;4.62;78.45;101502.31;5000413;28;20507;-45
2023/11/22 09:53:30;;;;;;;0.30;0.10;;;;;;;4.35;78.41;101508.03;5002578;28;20449;-45
2023/11/22 09:55:58;;;;;;;0.30;0.10;;;;;;;4.46;77.72;101519.63;5000280;28;20453;-45
2023/11/22 09:58:25;;;;;;;0.30;0.20;;;;;;;4.46;78.88;101537.16;5009620;28;20452;-47
2023/11/22 10:00:52;;;;;;;0.30;0.10;;;;;;;4.72;78.88;101541.09;5011551;28;20501;-45
2023/11/22 10:03:20;;;;;;;0.30;0.20;;;;;;;4.43;78.75;101551.16;5012279;28;20480;-46
2023/11/22 10:05:47;;;;;;;0.30;0.10;;;;;;;4.64;78.14;101544.44;5001716;28;20448;-47
2023/11/22 10:08:14;;;;;;;10.70;10.00;;;;;;;4.56;75.81;101548.72;4999906;28;20453;-45
2023/11/22 10:10:42;;;;;;;0.30;0.13;;;;;;;4.55;76.20;101552.22;5004776;28;20477;-46
2023/11/22 10:13:09;;;;;;;0.30;0.10;;;;;;;4.44;77.19;101534.50;5006818;28;20449;-46
2023/11/22 10:15:36;;;;;;;0.30;0.13;;;;;;;4.41;78.83;101525.69;5002667;28;20453;-46
2023/11/22 10:18:03;;;;;;;0.30;0.20;;;;;;;4.41;77.15;101529.19;4999841;28;20973;-46
2023/11/22 10:20:38;;;;;;;0.30;0.20;;;;;;;4.77;76.58;101520.06;5004143;28;20887;-46
2023/11/22 10:23:11;;;;;;;0.30;0.20;;;;;;;5.27;76.16;101523.44;5006603;28;20543;-47
2023/11/22 10:25:44;;;;;;;0.30;0.20;;;;;;;4.84;72.85;101529.84;5004831;28;20449;-46
2023/11/22 10:28:13;;;;;;;0.30;0.20;;;;;;;4.80;74.23;101530.69;5002204;28;20454;-46
2023/11/22 10:30:40;;;;;;;0.30;0.13;;;;;;;5.06;74.07;101529.28;4997290;28;20923;-46
2023/11/22 10:33:06;;;;;;;0.30;0.10;;;;;;;5.01;74.53;101530.09;5007071;28;20486;-46
2023/11/22 10:35:33;;;;;;;0.30;0.20;;;;;;;5.07;75.15;101527.53;5005544;28;20452;-45
2023/11/22 10:38:06;;;;;;;0.30;0.10;;;;;;;5.07;74.63;101532.81;4999302;28;20910;-46
2023/11/22 10:40:32;;;;;;;0.30;0.13;;;;;;;5.41;74.93;101531.50;4999718;28;21053;-46
2023/11/22 10:42:59;;;;;;;0.30;0.20;;;;;;;5.25;74.67;101534.81;5006390;28;20456;-47
2023/11/22 10:45:30;;;;;;;0.30;0.20;;;;;;;5.10;72.80;101535.50;5006234;28;20544;-47
2023/11/22 10:47:58;;;;;;;0.30;0.10;;;;;;;5.42;73.95;101535.91;5024423;28;20469;-46
2023/11/22 10:50:24;;;;;;;0.30;0.20;;;;;;;5.35;72.49;101537.59;4999082;28;20478;-47
2023/11/22 10:52:55;;;;;;;0.30;0.20;;;;;;;5.25;72.05;101537.47;5004381;28;20495;-46
2023/11/22 10:55:26;;;;;;;0.30;0.20;;;;;;;5.27;73.06;101541.00;5006201;28;20449;-46
2023/11/22 10:57:56;;;;;;;0.30;0.17;;;;;;;5.25;73.56;101555.91;5002134;28;20844;-46
2023/11/22 11:00:27;;;;;;;0.30;0.20;;;;;;;5.55;73.07;101556.28;5010557;28;20471;-46
2023/11/22 11:03:01;;;;;;;0.30;0.20;;;;;;;5.35;71.93;101552.53;5012436;28;20447;-46
2023/11/22 11:05:31;;;;;;;0.30;0.20;;;;;;;5.48;70.92;101550.91;4999169;28;20459;-47
2023/11/22 11:08:10;;;;;;;0.30;0.20;;;;;;;5.61;71.26;101556.34;5000173;28;20939;-46
2023/11/22 11:10:41;;;;;;;0.30;0.20;;;;;;;5.85;72.67;101560.16;5004935;28;20978;-46
2023/11/22 11:13:14;;;;;;;0.30;0.20;;;;;;;5.60;70.93;101557.22;5005424;28;20583;-46
2023/11/22 11:15:51;;;;;;;0.30;0.20;;;;;;;5.57;71.63;101551.91;5001101;28;20550;-47
2023/11/22 11:18:18;;;;;;;0.30;0.20;;;;;;;5.52;71.38;101545.72;4999284;28;20537;-46
2023/11/22 11:20:49;;;;;;;0.30;0.20;;;;;;;5.39;72.07;101549.06;5001772;28;20958;-46
2023/11/22 11:23:27;;;;;;;0.30;0.20;;;;;;;5.69;69.31;101551.19;5005553;28;20449;-46
2023/11/22 11:25:56;;;;;;;0.30;0.10;;;;;;;5.76;70.72;101549.53;5005201;28;20506;-46
2023/11/22 11:28:26;;;;;;;0.30;0.20;;;;;;;5.26;68.09;101568.22;5010477;28;20835;-46
2023/11/22 11:30:54;;;;;;;0.30;0.20;;;;;;;5.44;67.92;101563.19;5003956;28;20472;-46
2023/11/22 11:33:27;;;;;;;0.30;0.20;;;;;;;5.59;69.08;101567.75;5004410;28;20930;-46
2023/11/22 11:35:57;;;;;;;0.30;0.20;;;;;;;5.67;69.30;101560.84;5005998;28;20448;-46